EGSS

London Stansted Airport

London, United Kingdom
METAR EGSS 160420Z AUTO 22009KT 9999 NCD 04/03 Q1005
Observed Flight Rules
Dec-16 @ 04:20 UTC (35 minutes ago) Visual Flight Rules
Wind Visibility Clouds
220° at 9 knots 10,000+ meters
  • Clear skies
Temperatures Readings
Current 4°C / 39°F
Dewpoint 3°C / 37°F
Humidity 93%
Altimeter 29.68" Hg
Pressure 1005 hPa
Elevation 106
METAR EGSS 160420Z AUTO 22009KT 9999 NCD 04/03 Q1005
Observed Flight Rules
Dec-16 @ 04:20 UTC
(35 minutes ago)
VFR
Wind Visibility
220° at 9 knots 10,000+ meters
Clouds
  • Clear skies
Temperature Dewpoint
4°C / 39°F 3°C / 37°F
Humidity Altimeter Pressure
93% 29.68" Hg 1005 hPa